Time;durP1;ratioP1;P1;durP2;ratioP2;P2;SDS_P1;SDS_P2;PMS_P1;PMS_P2;Temp;Humidity;BMP_temperature;BMP_pressure;BME280_temperature;BME280_humidity;BME280_pressure;Samples;Min_cycle;Max_cycle;Signal;HPM_P1;HPM_P2
2022/08/11 00:00:07;;;;;;;8.82;2.50;;;;;;;;;;10092215;28;20048;-62
2022/08/11 00:05:11;;;;;;;4.40;2.63;;;;;;;;;;10109063;28;20060;-62
2022/08/11 00:10:05;;;;;;;2.88;2.35;;;;;;;;;;10140284;28;20495;-62
2022/08/11 00:15:00;;;;;;;5.53;2.50;;;;;;;;;;10103557;28;20139;-61
2022/08/11 00:20:00;;;;;;;6.88;2.20;;;;;;;;;;10105194;28;20040;-62
2022/08/11 00:25:19;;;;;;;4.88;2.50;;;;;;;;;;10123502;28;20056;-61
2022/08/11 00:30:13;;;;;;;2.58;2.10;;;;;;;;;;10145274;28;20136;-62
2022/08/11 00:35:09;;;;;;;4.88;2.47;;;;;;;;;;10147768;28;20045;-62
2022/08/11 00:40:43;;;;;;;2.60;2.40;;;;;;;;;;10147286;28;20576;-62
2022/08/11 00:45:44;;;;;;;3.13;2.00;;;;;;;;;;10103759;28;20052;-53
2022/08/11 00:50:55;;;;;;;5.72;2.70;;;;;;;;;;10143282;28;20123;-64
2022/08/11 00:56:15;;;;;;;4.28;2.30;;;;;;;;;;10148152;28;20056;-62
2022/08/11 01:01:09;;;;;;;4.15;2.90;;;;;;;;;;10128398;28;20132;-63
2022/08/11 01:06:21;;;;;;;7.85;2.60;;;;;;;;;;10121250;28;20059;-62
2022/08/11 01:11:47;;;;;;;3.40;3.00;;;;;;;;;;10133377;28;20055;-62
2022/08/11 01:17:06;;;;;;;3.35;3.05;;;;;;;;;;10095966;28;20513;-62
2022/08/11 01:22:28;;;;;;;4.82;2.53;;;;;;;;;;10134560;28;20410;-62
2022/08/11 01:27:38;;;;;;;9.73;3.25;;;;;;;;;;10131196;28;20051;-62
2022/08/11 01:33:25;;;;;;;4.07;2.80;;;;;;;;;;10134756;28;20057;-63
2022/08/11 01:38:26;;;;;;;2.60;2.40;;;;;;;;;;10069662;28;20411;-61
2022/08/11 01:49:10;;;;;;;3.33;2.80;;;;;;;;;;10144274;28;20415;-62
2022/08/11 01:54:32;;;;;;;3.58;2.70;;;;;;;;;;10145617;28;20515;-61
2022/08/11 01:59:35;;;;;;;3.10;2.65;;;;;;;;;;10118891;28;20047;-62
2022/08/11 02:05:02;;;;;;;4.07;2.90;;;;;;;;;;10120012;28;20053;-61
2022/08/11 02:15:46;;;;;;;7.68;2.60;;;;;;;;;;10145228;28;20047;-62
2022/08/11 02:26:06;;;;;;;3.45;2.83;;;;;;;;;;10140964;28;20063;-61
2022/08/11 02:36:57;;;;;;;4.43;2.45;;;;;;;;;;10134605;28;20101;-60
2022/08/11 02:42:23;;;;;;;3.35;2.78;;;;;;;;;;10123895;28;20048;-60
2022/08/11 02:47:39;;;;;;;9.88;2.67;;;;;;;;;;10130237;28;20048;-62
2022/08/11 02:53:06;;;;;;;3.53;2.78;;;;;;;;;;10135373;28;20415;-60
2022/08/11 02:58:10;;;;;;;3.78;2.22;;;;;;;;;;10141184;28;20044;-61
2022/08/11 03:03:04;;;;;;;3.78;2.80;;;;;;;;;;10148382;28;20048;-63
2022/08/11 03:08:05;;;;;;;2.95;2.67;;;;;;;;;;10150041;28;20055;-59
2022/08/11 03:18:55;;;;;;;4.18;3.80;;;;;;;;;;10127283;28;20450;-63
2022/08/11 03:23:47;;;;;;;18.17;4.72;;;;;;;;;;10112981;28;20483;-60
2022/08/11 03:29:04;;;;;;;11.52;5.20;;;;;;;;;;10142361;28;20049;-61
2022/08/11 03:34:07;;;;;;;8.73;4.63;;;;;;;;;;10113768;28;20045;-59
2022/08/11 03:39:03;;;;;;;9.40;4.55;;;;;;;;;;10138404;28;20122;-61
2022/08/11 03:44:14;;;;;;;8.15;5.30;;;;;;;;;;10141219;28;20052;-60
2022/08/11 03:49:20;;;;;;;8.52;4.93;;;;;;;;;;10141600;28;20090;-61
2022/08/11 03:54:24;;;;;;;9.35;5.40;;;;;;;;;;10146270;28;20056;-59
2022/08/11 03:59:32;;;;;;;10.30;5.10;;;;;;;;;;10130652;28;20574;-63
2022/08/11 04:04:49;;;;;;;7.22;4.85;;;;;;;;;;10144714;28;20454;-61
2022/08/11 04:10:04;;;;;;;5.13;4.53;;;;;;;;;;10150456;28;20144;-63
2022/08/11 04:20:54;;;;;;;8.52;4.18;;;;;;;;;;10146270;28;20055;-63
2022/08/11 04:26:21;;;;;;;4.25;3.88;;;;;;;;;;10148443;28;20040;-63
2022/08/11 04:31:38;;;;;;;5.95;4.28;;;;;;;;;;10148166;28;20047;-63
2022/08/11 04:37:33;;;;;;;8.13;3.60;;;;;;;;;;10104372;28;20067;-63
2022/08/11 04:43:34;;;;;;;12.85;4.85;;;;;;;;;;10147412;28;20051;-64
2022/08/11 05:10:22;;;;;;;6.00;4.10;;;;;;;;;;10145844;28;20560;-61
2022/08/11 05:37:31;;;;;;;14.55;3.67;;;;;;;;;;10143672;28;20568;-63
2022/08/11 05:58:45;;;;;;;6.80;3.47;;;;;;;;;;10133550;28;20492;-62
2022/08/11 06:08:57;;;;;;;6.53;3.20;;;;;;;;;;10133037;28;20056;-61
2022/08/11 06:13:51;;;;;;;5.20;3.13;;;;;;;;;;10143285;28;20052;-63
2022/08/11 06:18:47;;;;;;;6.95;2.95;;;;;;;;;;10131626;28;20452;-62
2022/08/11 06:23:42;;;;;;;5.60;3.22;;;;;;;;;;10145812;28;20084;-62
2022/08/11 06:28:40;;;;;;;4.90;3.03;;;;;;;;;;10147036;28;20048;-62
2022/08/11 06:33:42;;;;;;;6.53;3.22;;;;;;;;;;10148533;28;20043;-62
2022/08/11 06:38:53;;;;;;;6.00;3.30;;;;;;;;;;10151955;28;20135;-61
2022/08/11 06:43:48;;;;;;;6.53;3.40;;;;;;;;;;10147577;28;20496;-62
2022/08/11 06:48:48;;;;;;;4.75;2.63;;;;;;;;;;10140807;28;20507;-66
2022/08/11 06:53:45;;;;;;;7.18;2.83;;;;;;;;;;10146536;28;20055;-62
2022/08/11 07:04:11;;;;;;;2.88;2.40;;;;;;;;;;10151653;28;20045;-64
2022/08/11 07:30:26;;;;;;;8.00;2.90;;;;;;;;;;10132250;28;20049;-63
2022/08/11 07:35:23;;;;;;;6.05;3.40;;;;;;;;;;10142759;28;20099;-64
2022/08/11 07:40:21;;;;;;;4.93;2.65;;;;;;;;;;10130346;28;20060;-65
2022/08/11 07:55:38;;;;;;;4.22;2.22;;;;;;;;;;10144231;28;20468;-66
2022/08/11 08:21:51;;;;;;;5.05;1.85;;;;;;;;;;10146416;28;20388;-65
2022/08/11 08:26:59;;;;;;;5.40;1.80;;;;;;;;;;10150991;28;20052;-62
2022/08/11 08:31:53;;;;;;;6.75;2.60;;;;;;;;;;10135400;28;20513;-64
2022/08/11 08:36:48;;;;;;;5.70;1.70;;;;;;;;;;10150350;28;20063;-63
2022/08/11 08:41:42;;;;;;;11.48;1.95;;;;;;;;;;10148095;28;20086;-64
2022/08/11 08:46:42;;;;;;;10.50;2.15;;;;;;;;;;10147118;28;20071;-63
2022/08/11 08:51:37;;;;;;;4.88;1.70;;;;;;;;;;10125772;28;20056;-64
2022/08/11 08:56:55;;;;;;;4.60;1.67;;;;;;;;;;10130948;28;20130;-62
2022/08/11 09:01:54;;;;;;;3.45;1.88;;;;;;;;;;10142611;28;20048;-63
2022/08/11 09:06:47;;;;;;;7.50;2.03;;;;;;;;;;10139335;28;20056;-64
2022/08/11 09:11:49;;;;;;;;;;;;;;;;;;10129031;28;20048;-63
2022/08/11 09:16:43;;;;;;;10.13;4.15;;;;;;;;;;10145583;28;19975;-66
2022/08/11 09:21:41;;;;;;;8.90;3.00;;;;;;;;;;10141975;28;20415;-66
2022/08/11 09:26:59;;;;;;;4.75;1.60;;;;;;;;;;10142906;28;20450;-64
2022/08/11 09:31:52;;;;;;;2.35;1.67;;;;;;;;;;10144685;28;20435;-62
2022/08/11 09:41:58;;;;;;;8.50;1.90;;;;;;;;;;10148302;28;20505;-61
2022/08/11 09:46:58;;;;;;;10.48;1.70;;;;;;;;;;10142867;28;20127;-60
2022/08/11 09:51:53;;;;;;;8.20;1.55;;;;;;;;;;10141409;28;20052;-59
2022/08/11 10:02:10;;;;;;;5.00;1.60;;;;;;;;;;10149629;28;20037;-60
2022/08/11 10:07:05;;;;;;;2.75;1.30;;;;;;;;;;10129209;28;20056;-62
2022/08/11 10:11:59;;;;;;;1.80;1.20;;;;;;;;;;10122731;28;20094;-59
2022/08/11 10:16:52;;;;;;;4.38;1.77;;;;;;;;;;10143780;28;20721;-65
2022/08/11 10:27:05;;;;;;;3.72;1.20;;;;;;;;;;10120847;28;20072;-65
2022/08/11 10:37:18;;;;;;;9.50;1.90;;;;;;;;;;10140596;28;20063;-62
2022/08/11 10:47:43;;;;;;;4.35;1.40;;;;;;;;;;10144696;28;20041;-61
2022/08/11 11:03:06;;;;;;;1.60;1.48;;;;;;;;;;10136747;28;20487;-60
2022/08/11 11:18:48;;;;;;;3.85;1.35;;;;;;;;;;10147846;28;20442;-60
2022/08/11 11:24:17;;;;;;;3.72;1.00;;;;;;;;;;10147496;28;20044;-61
2022/08/11 11:30:07;;;;;;;9.13;1.48;;;;;;;;;;10148678;28;20037;-60
2022/08/11 11:35:16;;;;;;;1.65;1.15;;;;;;;;;;9969086;28;20124;-58
2022/08/11 11:40:21;;;;;;;5.35;1.23;;;;;;;;;;10112374;28;20045;-59
2022/08/11 11:45:24;;;;;;;6.13;1.75;;;;;;;;;;10145612;28;20052;-58
2022/08/11 11:50:24;;;;;;;4.43;1.13;;;;;;;;;;10149115;28;20044;-59
2022/08/11 11:55:24;;;;;;;;;;;;;;;;;;10139026;28;20053;-58
2022/08/11 12:05:35;;;;;;;4.10;1.00;;;;;;;;;;10130289;28;20068;-59
2022/08/11 12:10:29;;;;;;;3.00;1.00;;;;;;;;;;10127113;28;20472;-60
2022/08/11 12:15:23;;;;;;;5.65;0.95;;;;;;;;;;10124661;28;20106;-62
2022/08/11 12:20:37;;;;;;;4.43;0.90;;;;;;;;;;10127906;28;20110;-59
2022/08/11 12:31:04;;;;;;;2.88;1.20;;;;;;;;;;10127193;28;20040;-56
2022/08/11 12:35:58;;;;;;;3.28;1.30;;;;;;;;;;10143016;28;20511;-57
2022/08/11 12:46:32;;;;;;;7.35;1.33;;;;;;;;;;10133803;28;20303;-58
2022/08/11 12:52:00;;;;;;;2.05;1.35;;;;;;;;;;10127015;28;20537;-57
2022/08/11 13:08:00;;;;;;;3.72;1.15;;;;;;;;;;10123150;28;20060;-59
2022/08/11 13:13:10;;;;;;;2.90;1.08;;;;;;;;;;10142316;28;20086;-58
2022/08/11 13:18:26;;;;;;;3.63;0.88;;;;;;;;;;10146610;28;20051;-59
2022/08/11 13:23:19;;;;;;;2.97;1.30;;;;;;;;;;10145658;28;20059;-60
2022/08/11 13:28:12;;;;;;;1.00;0.90;;;;;;;;;;10143466;28;20045;-57
2022/08/11 13:33:07;;;;;;;3.85;1.10;;;;;;;;;;10141558;28;20053;-59
2022/08/11 13:38:04;;;;;;;2.50;0.80;;;;;;;;;;10142513;28;20056;-58
2022/08/11 13:43:12;;;;;;;1.48;1.05;;;;;;;;;;10125507;28;20059;-58
2022/08/11 13:48:11;;;;;;;8.53;0.83;;;;;;;;;;10144881;28;20055;-59
2022/08/11 13:53:05;;;;;;;1.25;0.98;;;;;;;;;;10122394;28;20048;-58
2022/08/11 13:57:58;;;;;;;5.32;1.13;;;;;;;;;;10145104;28;20117;-60
2022/08/11 14:03:11;;;;;;;1.00;0.90;;;;;;;;;;10146624;28;20657;-60
2022/08/11 14:08:11;;;;;;;2.00;1.20;;;;;;;;;;10128156;28;20459;-59
2022/08/11 14:13:38;;;;;;;4.25;1.33;;;;;;;;;;10130710;28;20071;-63
2022/08/11 14:18:49;;;;;;;3.42;1.17;;;;;;;;;;10149849;28;20060;-63
2022/08/11 14:23:49;;;;;;;4.78;1.20;;;;;;;;;;10109217;28;20071;-58
2022/08/11 14:28:42;;;;;;;1.75;0.90;;;;;;;;;;10124043;28;20064;-59
2022/08/11 14:33:37;;;;;;;5.40;1.30;;;;;;;;;;10139441;28;20056;-59
2022/08/11 14:38:49;;;;;;;6.63;0.95;;;;;;;;;;10129854;28;20042;-57
2022/08/11 14:49:06;;;;;;;5.18;1.10;;;;;;;;;;10139525;28;20051;-57
2022/08/11 14:59:12;;;;;;;6.03;1.38;;;;;;;;;;10148856;28;20487;-58
2022/08/11 15:04:06;;;;;;;3.53;1.52;;;;;;;;;;10149455;28;20037;-57
2022/08/11 15:09:19;;;;;;;1.35;1.25;;;;;;;;;;10141064;28;20047;-57
2022/08/11 15:14:13;;;;;;;5.45;1.38;;;;;;;;;;10148047;28;20044;-57
2022/08/11 15:19:07;;;;;;;4.65;1.00;;;;;;;;;;10145487;28;20079;-57
2022/08/11 15:24:19;;;;;;;5.03;1.50;;;;;;;;;;10151879;28;20049;-56
2022/08/11 15:50:39;;;;;;;3.22;1.63;;;;;;;;;;10149035;28;20048;-57
2022/08/11 15:55:35;;;;;;;5.43;1.20;;;;;;;;;;10143923;28;20880;-58
2022/08/11 16:05:56;;;;;;;1.70;1.30;;;;;;;;;;10148703;28;20094;-60
2022/08/11 16:10:50;;;;;;;1.42;1.33;;;;;;;;;;10142760;28;20454;-60
2022/08/11 16:21:01;;;;;;;2.08;1.45;;;;;;;;;;10131232;28;20136;-57
2022/08/11 16:25:55;;;;;;;1.73;1.35;;;;;;;;;;10144151;28;20043;-58
2022/08/11 16:31:09;;;;;;;4.38;2.05;;;;;;;;;;10145710;28;20044;-59
2022/08/11 16:46:58;;;;;;;1.98;1.40;;;;;;;;;;10123605;28;20056;-58
2022/08/11 16:51:42;;;;;;;4.28;1.42;;;;;;;;;;10142667;28;20079;-59
2022/08/11 16:56:49;;;;;;;4.72;1.70;;;;;;;;;;10145838;28;20048;-57
2022/08/11 17:02:04;;;;;;;2.40;1.55;;;;;;;;;;10151173;28;20036;-58
2022/08/11 17:17:40;;;;;;;2.17;1.88;;;;;;;;;;10129476;28;20075;-56
2022/08/11 17:27:48;;;;;;;3.08;1.63;;;;;;;;;;10125893;28;20048;-55
2022/08/11 17:38:12;;;;;;;1.60;1.50;;;;;;;;;;10145281;28;20045;-57
2022/08/11 17:48:25;;;;;;;5.50;1.38;;;;;;;;;;10143549;28;20064;-60
2022/08/11 18:03:43;;;;;;;3.88;2.30;;;;;;;;;;10124926;28;20055;-57
